Time;durP1;ratioP1;P1;durP2;ratioP2;P2;SDS_P1;SDS_P2;PMS_P1;PMS_P2;Temp;Humidity;BMP_temperature;BMP_pressure;BME280_temperature;BME280_humidity;BME280_pressure;Samples;Min_cycle;Max_cycle;Signal;HPM_P1;HPM_P2
2022/03/14 06:04:01;;;;;;;19.70;4.88;;;;;;;5.41;100.00;101090.38;6179466;23;20019;-77
2022/03/14 06:07:15;;;;;;;;;;;;;;;;;;;;;
2022/03/14 06:11:03;;;;;;;17.15;4.45;;;;;;;5.43;100.00;101116.56;6097607;23;20014;-77
2022/03/14 06:14:15;;;;;;;20.13;5.05;;;;;;;5.43;100.00;101126.75;6110681;23;20017;-78
2022/03/14 06:22:28;;;;;;;17.02;3.83;;;;;;;5.42;100.00;101139.69;6028494;23;20020;-77
2022/03/14 06:26:12;;;;;;;;;;;;;;;;;;;;;
2022/03/14 06:29:04;;;;;;;15.88;3.92;;;;;;;5.44;100.00;101148.56;5968464;23;20015;-79
2022/03/14 06:31:33;;;;;;;14.27;4.45;;;;;;;5.45;100.00;101146.63;6016161;23;20027;-79
2022/03/14 06:33:59;;;;;;;18.50;4.32;;;;;;;5.45;100.00;101147.47;6195367;23;20013;-79
2022/03/14 06:36:26;;;;;;;15.90;4.45;;;;;;;5.44;100.00;101145.78;6191660;23;20075;-78
2022/03/14 06:38:52;;;;;;;25.27;5.05;;;;;;;5.44;100.00;101155.97;6192040;23;20016;-79
2022/03/14 06:41:18;;;;;;;18.58;4.43;;;;;;;5.42;100.00;101153.47;6191941;23;20020;-78
2022/03/14 06:43:44;;;;;;;19.88;4.95;;;;;;;5.44;100.00;101161.50;6191969;23;20520;-78
2022/03/14 06:46:09;;;;;;;16.48;4.40;;;;;;;5.42;100.00;101163.66;6216860;23;20009;-79
2022/03/14 06:48:40;;;;;;;16.73;4.68;;;;;;;5.43;100.00;101171.66;6166629;23;20012;-78
2022/03/14 06:51:06;;;;;;;27.23;4.68;;;;;;;5.43;100.00;101168.06;6236555;22;20021;-79
2022/03/14 06:53:32;;;;;;;15.73;4.75;;;;;;;5.42;100.00;101170.00;6264190;22;20013;-78
2022/03/14 06:55:57;;;;;;;20.23;4.97;;;;;;;5.41;100.00;101171.09;6287366;22;20102;-79
2022/03/14 06:58:23;;;;;;;23.80;5.63;;;;;;;5.43;100.00;101177.16;6262745;22;20036;-78
2022/03/14 07:00:48;;;;;;;16.83;5.05;;;;;;;5.44;100.00;101173.34;6258524;22;20089;-78
2022/03/14 07:03:14;;;;;;;20.55;4.32;;;;;;;5.44;100.00;101178.03;6233262;22;20092;-78
2022/03/14 07:05:40;;;;;;;21.20;5.18;;;;;;;5.44;100.00;101184.38;6259036;22;20011;-78
2022/03/14 07:08:05;;;;;;;22.25;4.50;;;;;;;5.45;100.00;101182.44;6284226;22;20003;-79
2022/03/14 07:10:31;;;;;;;17.27;4.43;;;;;;;5.45;100.00;101190.72;6284376;22;20012;-79
2022/03/14 07:12:57;;;;;;;13.30;4.07;;;;;;;5.44;100.00;101198.13;6284419;22;20003;-78
2022/03/14 07:15:23;;;;;;;14.63;4.10;;;;;;;5.47;100.00;101196.81;6258601;22;20014;-78
2022/03/14 07:17:51;;;;;;;15.27;3.90;;;;;;;5.47;100.00;101197.66;6284218;22;20003;-75
2022/03/14 07:20:19;;;;;;;17.70;4.82;;;;;;;5.49;100.00;101208.41;6284276;22;20014;-74
2022/03/14 07:22:53;;;;;;;13.82;4.38;;;;;;;5.52;100.00;101202.44;6288151;22;20007;-74
2022/03/14 07:25:23;;;;;;;13.90;3.35;;;;;;;5.52;100.00;101203.28;6288078;22;20336;-76
2022/03/14 07:27:49;;;;;;;18.40;4.18;;;;;;;5.54;100.00;101201.13;6284483;22;20007;-75
2022/03/14 07:30:15;;;;;;;20.25;4.72;;;;;;;5.56;100.00;101204.44;6233206;22;20007;-75
2022/03/14 07:32:40;;;;;;;12.85;3.90;;;;;;;5.57;100.00;101208.91;6283808;22;20429;-75
2022/03/14 07:35:07;;;;;;;13.98;4.10;;;;;;;5.62;100.00;101207.31;6309784;22;20424;-75
2022/03/14 07:37:32;;;;;;;16.70;4.70;;;;;;;5.63;100.00;101211.72;6283674;22;20008;-75
2022/03/14 07:39:58;;;;;;;16.30;4.70;;;;;;;5.69;100.00;101219.03;6309999;22;20014;-75
2022/03/14 07:42:24;;;;;;;18.55;5.18;;;;;;;5.71;100.00;101227.88;6258733;22;20014;-75
2022/03/14 07:44:49;;;;;;;14.75;4.15;;;;;;;5.74;100.00;101236.53;6258568;22;20003;-75
2022/03/14 07:47:15;;;;;;;17.60;3.95;;;;;;;5.79;100.00;101233.00;6283689;22;20010;-75
2022/03/14 07:49:40;;;;;;;17.05;4.35;;;;;;;5.81;100.00;101231.69;6261894;22;20003;-75
2022/03/14 07:52:07;;;;;;;15.65;4.38;;;;;;;5.86;100.00;101239.25;6287264;22;20004;-75
2022/03/14 07:54:32;;;;;;;15.18;4.35;;;;;;;5.91;100.00;101239.34;6309080;22;20007;-75
2022/03/14 07:56:58;;;;;;;15.45;4.22;;;;;;;5.97;100.00;101241.16;6309611;22;20022;-75
2022/03/14 07:59:23;;;;;;;15.38;3.75;;;;;;;6.03;100.00;101240.16;6309462;22;20007;-75
2022/03/14 08:01:49;;;;;;;11.98;3.53;;;;;;;6.10;100.00;101244.69;6311060;22;20007;-75
2022/03/14 08:04:14;;;;;;;14.40;3.97;;;;;;;6.15;100.00;101253.06;6310831;22;20328;-75
2022/03/14 08:06:42;;;;;;;15.32;4.15;;;;;;;6.22;100.00;101257.34;6311100;22;20006;-75
2022/03/14 08:09:08;;;;;;;15.27;3.53;;;;;;;6.27;100.00;101253.84;6309881;22;20007;-75
2022/03/14 08:11:35;;;;;;;16.05;4.10;;;;;;;6.31;100.00;101257.78;6258235;22;19999;-75
2022/03/14 08:14:02;;;;;;;16.70;4.10;;;;;;;6.37;100.00;101265.06;6309666;22;20530;-75
2022/03/14 08:16:27;;;;;;;11.52;3.50;;;;;;;6.43;100.00;101269.59;6262112;22;20053;-75
2022/03/14 08:18:53;;;;;;;18.58;4.40;;;;;;;6.53;100.00;101265.34;6312356;22;19999;-75
2022/03/14 08:21:18;;;;;;;13.75;4.07;;;;;;;6.63;100.00;101268.28;6258257;22;20060;-75
2022/03/14 08:23:45;;;;;;;13.07;4.05;;;;;;;6.75;100.00;101277.34;6283494;22;20011;-76
2022/03/14 08:26:11;;;;;;;14.45;4.18;;;;;;;6.87;100.00;101278.09;6311023;22;20325;-75
2022/03/14 08:28:37;;;;;;;11.00;3.70;;;;;;;7.00;100.00;101284.38;6258453;22;20011;-76
2022/03/14 08:31:03;;;;;;;15.00;4.22;;;;;;;7.11;100.00;101287.03;6258521;22;20497;-75
2022/03/14 08:33:29;;;;;;;11.45;3.80;;;;;;;7.22;100.00;101287.22;6283440;22;20007;-75
2022/03/14 08:35:59;;;;;;;10.65;4.55;;;;;;;7.32;100.00;101277.13;6284213;22;20008;-75
2022/03/14 08:38:25;;;;;;;13.93;4.00;;;;;;;7.42;100.00;101278.38;6259996;22;20011;-76
2022/03/14 08:40:50;;;;;;;14.43;4.78;;;;;;;7.54;100.00;101279.09;6283668;22;20415;-75
2022/03/14 08:43:16;;;;;;;15.93;4.38;;;;;;;7.68;100.00;101282.34;6236366;22;20007;-75
2022/03/14 08:45:43;;;;;;;12.40;4.00;;;;;;;7.81;100.00;101291.09;6235681;22;20069;-75
2022/03/14 08:48:12;;;;;;;12.82;4.10;;;;;;;7.99;100.00;101292.69;6309120;22;20029;-75
2022/03/14 08:50:40;;;;;;;9.55;4.13;;;;;;;8.12;100.00;101291.47;6284178;22;20011;-75
2022/03/14 08:53:06;;;;;;;15.48;4.80;;;;;;;8.29;100.00;101296.91;6283959;22;20003;-75
2022/03/14 08:55:32;;;;;;;13.38;3.78;;;;;;;8.46;100.00;101297.69;6283630;22;20023;-75
2022/03/14 08:57:57;;;;;;;14.98;3.65;;;;;;;8.61;100.00;101297.03;6283414;22;19999;-75
2022/03/14 09:00:27;;;;;;;10.88;3.42;;;;;;;8.81;100.00;101301.09;6309271;22;20056;-75
2022/03/14 09:02:53;;;;;;;13.88;3.20;;;;;;;9.06;98.15;101301.31;6259500;22;20082;-75
2022/03/14 09:05:19;;;;;;;10.13;2.65;;;;;;;9.28;96.42;101300.38;6283618;22;20011;-75
2022/03/14 09:07:44;;;;;;;12.23;2.55;;;;;;;9.46;96.15;101299.91;6283478;22;20471;-75
2022/03/14 09:10:12;;;;;;;7.68;2.70;;;;;;;9.61;94.92;101294.47;6287644;22;20011;-75
2022/03/14 09:12:38;;;;;;;10.27;2.40;;;;;;;9.81;93.48;101293.75;6287003;22;20007;-75
2022/03/14 09:15:04;;;;;;;8.88;2.60;;;;;;;9.95;93.42;101302.41;6283708;22;20450;-75
2022/03/14 09:17:32;;;;;;;7.85;2.20;;;;;;;10.12;92.91;101301.38;6283479;22;20041;-75
2022/03/14 09:19:58;;;;;;;13.18;2.28;;;;;;;10.26;91.05;101308.09;6309409;22;20059;-75
2022/03/14 09:22:23;;;;;;;10.73;2.70;;;;;;;10.42;89.16;101314.53;6258203;22;20416;-75
2022/03/14 09:24:49;;;;;;;13.15;2.42;;;;;;;10.56;88.14;101309.28;6283803;22;20007;-75
2022/03/14 09:27:14;;;;;;;11.48;2.10;;;;;;;10.65;87.92;101311.28;6310529;22;20004;-75
2022/03/14 09:29:40;;;;;;;11.07;2.72;;;;;;;10.76;89.42;101319.63;6309368;22;20030;-75
2022/03/14 09:32:06;;;;;;;9.18;2.22;;;;;;;10.89;87.63;101316.28;6310691;22;20010;-75
2022/03/14 09:34:31;;;;;;;13.18;3.28;;;;;;;11.01;86.67;101318.81;6310823;22;20014;-75
2022/03/14 09:36:57;;;;;;;9.90;2.15;;;;;;;11.12;85.83;101320.50;6315915;22;20483;-75
2022/03/14 09:39:23;;;;;;;11.70;2.38;;;;;;;11.23;87.22;101319.38;6262800;22;20038;-75
2022/03/14 09:41:49;;;;;;;8.18;2.13;;;;;;;11.33;83.72;101315.75;6312568;22;20010;-75
2022/03/14 09:44:15;;;;;;;9.57;2.30;;;;;;;11.43;84.77;101310.19;6260244;22;20014;-74
2022/03/14 09:46:41;;;;;;;9.65;1.95;;;;;;;11.55;83.47;101312.66;6285227;22;20428;-75
2022/03/14 09:49:09;;;;;;;7.18;2.50;;;;;;;11.69;81.52;101304.56;6259210;22;20007;-75
2022/03/14 09:51:39;;;;;;;12.38;2.63;;;;;;;11.79;81.59;101301.75;6311000;22;19999;-75
2022/03/14 09:54:09;;;;;;;10.63;2.40;;;;;;;11.92;82.61;101300.31;6285983;22;20008;-75
2022/03/14 09:56:34;;;;;;;9.00;2.58;;;;;;;11.99;81.71;101307.28;6285067;22;20019;-75
2022/03/14 09:59:00;;;;;;;10.15;2.53;;;;;;;12.09;82.46;101311.97;6285093;22;20013;-75
2022/03/14 10:01:27;;;;;;;10.63;2.67;;;;;;;12.18;81.60;101304.69;6310688;22;20309;-75
2022/03/14 10:03:53;;;;;;;9.05;2.10;;;;;;;12.38;76.07;101303.75;6315056;22;20332;-75
2022/03/14 10:06:19;;;;;;;11.90;2.63;;;;;;;12.45;76.11;101297.84;6287211;22;20050;-76
2022/03/14 10:08:44;;;;;;;9.35;2.50;;;;;;;12.52;77.38;101290.84;6284835;22;20065;-75
2022/03/14 10:11:10;;;;;;;6.72;2.42;;;;;;;12.66;78.11;101290.22;6285033;22;20459;-75
2022/03/14 10:13:37;;;;;;;8.40;1.98;;;;;;;12.79;76.76;101297.06;6284780;22;20011;-76
2022/03/14 10:16:04;;;;;;;12.05;2.20;;;;;;;12.79;76.00;101299.84;6285754;22;20014;-75
2022/03/14 10:18:36;;;;;;;10.20;2.50;;;;;;;12.86;75.99;101300.38;6312072;22;20007;-75
2022/03/14 10:21:07;;;;;;;7.90;2.20;;;;;;;13.00;73.94;101295.78;6285785;22;20007;-75
2022/03/14 10:23:35;;;;;;;10.50;2.05;;;;;;;13.10;71.53;101292.94;6260713;22;20015;-75
2022/03/14 10:26:00;;;;;;;7.85;1.83;;;;;;;13.13;70.74;101297.94;6284597;22;20039;-75
2022/03/14 10:28:38;;;;;;;9.05;1.90;;;;;;;13.27;70.40;101297.28;6312498;22;20057;-75
2022/03/14 10:31:04;;;;;;;6.53;1.98;;;;;;;13.33;68.12;101296.09;6290439;22;20030;-75
2022/03/14 10:33:31;;;;;;;6.35;1.70;;;;;;;13.41;66.35;101304.66;6285652;22;20331;-75
2022/03/14 10:35:57;;;;;;;10.50;2.28;;;;;;;13.45;65.81;101307.69;6260309;22;20003;-76
2022/03/14 10:38:23;;;;;;;8.90;2.00;;;;;;;13.48;66.21;101309.91;6258886;22;20012;-75
2022/03/14 10:40:48;;;;;;;8.88;2.28;;;;;;;13.48;66.94;101317.44;6284718;22;20377;-75
2022/03/14 10:43:26;;;;;;;8.18;1.80;;;;;;;13.54;67.02;101313.47;6312076;22;20003;-75
2022/03/14 10:45:55;;;;;;;6.80;1.75;;;;;;;13.61;65.76;101325.97;6310190;22;20531;-75
2022/03/14 10:48:35;;;;;;;7.50;1.35;;;;;;;13.63;64.79;101317.31;6284225;22;20341;-75
2022/03/14 10:51:11;;;;;;;9.00;1.90;;;;;;;13.62;65.65;101321.19;6284890;22;20443;-75
2022/03/14 10:53:41;;;;;;;6.22;1.70;;;;;;;13.67;64.84;101311.94;6309414;22;20003;-75
2022/03/14 10:56:07;;;;;;;8.82;1.67;;;;;;;13.71;64.12;101318.63;6312648;22;20101;-75
2022/03/14 10:58:33;;;;;;;5.85;1.60;;;;;;;13.79;63.95;101315.16;6288793;22;20007;-76
2022/03/14 11:01:06;;;;;;;12.38;1.95;;;;;;;13.81;65.86;101312.91;6284601;22;20394;-75
2022/03/14 11:03:36;;;;;;;10.25;2.10;;;;;;;13.84;62.90;101306.72;6284280;22;20007;-75
2022/03/14 11:06:22;;;;;;;7.10;2.00;;;;;;;13.86;62.05;101290.53;6311608;22;20007;-75
2022/03/14 11:08:48;;;;;;;6.05;1.73;;;;;;;13.88;58.99;101291.06;6263016;22;20018;-76
2022/03/14 11:11:14;;;;;;;7.43;1.58;;;;;;;13.80;58.52;101294.50;6284298;22;20003;-75
2022/03/14 11:13:41;;;;;;;9.52;1.85;;;;;;;13.96;57.98;101290.41;6310218;22;20018;-76
2022/03/14 11:16:28;;;;;;;8.77;1.80;;;;;;;14.03;57.52;101288.06;6309870;22;20332;-75
2022/03/14 11:18:54;;;;;;;10.52;2.30;;;;;;;14.13;59.24;101280.72;6284040;22;20025;-75
2022/03/14 11:21:24;;;;;;;8.18;1.60;;;;;;;13.99;55.47;101292.59;6284667;22;20436;-75
2022/03/14 11:23:51;;;;;;;7.28;1.55;;;;;;;14.01;56.34;101284.75;6314663;22;19999;-75
2022/03/14 11:26:24;;;;;;;10.23;1.88;;;;;;;13.97;57.98;101286.47;6286703;22;20052;-74
2022/03/14 11:28:50;;;;;;;4.70;1.23;;;;;;;14.06;56.03;101281.88;6284503;22;20017;-75
2022/03/14 11:31:20;;;;;;;5.55;1.42;;;;;;;14.17;55.13;101284.56;6284059;22;20082;-75
2022/03/14 11:33:46;;;;;;;7.75;1.52;;;;;;;14.17;54.55;101287.34;6311055;22;20030;-75
2022/03/14 11:36:11;;;;;;;7.95;1.98;;;;;;;14.16;54.34;101285.69;6310000;22;20367;-74
2022/03/14 11:38:37;;;;;;;6.80;1.73;;;;;;;14.20;53.65;101292.34;6309806;22;20008;-75
2022/03/14 11:41:02;;;;;;;6.57;1.33;;;;;;;14.25;53.50;101289.47;6310029;22;20313;-75
2022/03/14 11:43:28;;;;;;;9.57;1.70;;;;;;;14.24;52.98;101299.81;6310155;22;19999;-75
2022/03/14 11:45:54;;;;;;;4.72;1.30;;;;;;;14.25;51.07;101295.88;6284346;22;20007;-75
2022/03/14 11:48:20;;;;;;;7.93;1.90;;;;;;;14.21;51.20;101286.47;6311643;22;20081;-74
2022/03/14 11:51:06;;;;;;;6.28;1.25;;;;;;;14.26;50.69;101296.72;6288789;22;20015;-76
2022/03/14 11:53:34;;;;;;;5.07;1.27;;;;;;;14.22;52.94;101290.06;6312300;22;20018;-75
2022/03/14 11:56:05;;;;;;;8.10;1.70;;;;;;;14.21;53.08;101292.03;6284125;22;20102;-75
2022/03/14 11:58:34;;;;;;;6.20;1.52;;;;;;;14.30;52.34;101298.63;6283426;22;20008;-75
2022/03/14 12:01:15;;;;;;;5.18;1.40;;;;;;;14.38;51.00;101297.13;6309436;22;20096;-75
2022/03/14 12:04:07;;;;;;;4.78;1.40;;;;;;;14.43;49.61;101291.47;6284224;22;20010;-76
2022/03/14 12:06:49;;;;;;;6.53;1.60;;;;;;;14.48;49.74;101291.38;6305063;22;20042;-75
2022/03/14 12:09:38;;;;;;;6.88;1.27;;;;;;;14.53;51.17;101294.13;6283598;22;20010;-75
2022/03/14 12:12:21;;;;;;;5.10;1.50;;;;;;;14.63;51.39;101290.38;6311043;22;20007;-75
2022/03/14 12:14:54;;;;;;;6.63;1.88;;;;;;;14.61;51.85;101297.38;6311484;22;20014;-76
2022/03/14 12:17:19;;;;;;;7.63;1.67;;;;;;;14.58;51.21;101295.22;6289354;22;20027;-76
2022/03/14 12:20:03;;;;;;;5.13;1.35;;;;;;;14.60;50.52;101301.31;6312478;22;20018;-75
2022/03/14 12:22:39;;;;;;;5.53;1.63;;;;;;;14.59;49.89;101300.47;6286861;22;20442;-75
2022/03/14 12:25:06;;;;;;;6.40;1.33;;;;;;;14.59;50.57;101294.06;6309461;22;20087;-76
2022/03/14 12:27:42;;;;;;;6.05;1.70;;;;;;;14.50;50.35;101289.13;6309372;22;20008;-75
2022/03/14 12:30:16;;;;;;;8.27;1.70;;;;;;;14.47;49.81;101298.09;6283860;22;20128;-75
2022/03/14 12:32:43;;;;;;;4.43;1.50;;;;;;;14.48;50.40;101299.75;6279895;22;20054;-75
2022/03/14 12:35:12;;;;;;;6.60;1.60;;;;;;;14.52;49.16;101288.84;6278526;22;20004;-75
2022/03/14 12:37:47;;;;;;;6.00;1.80;;;;;;;14.55;50.03;101290.22;6304024;22;20086;-75
2022/03/14 12:40:19;;;;;;;5.60;1.33;;;;;;;14.55;50.24;101287.44;6280008;22;20327;-75
2022/03/14 12:42:47;;;;;;;6.10;1.50;;;;;;;14.51;50.24;101271.22;6283399;22;20035;-75
2022/03/14 12:45:16;;;;;;;7.10;1.52;;;;;;;14.51;50.84;101281.56;6256893;22;20007;-75
2022/03/14 12:47:42;;;;;;;7.43;1.80;;;;;;;14.51;50.56;101284.34;6278091;22;20008;-74
2022/03/14 12:50:10;;;;;;;6.55;1.50;;;;;;;14.43;48.80;101285.88;6279891;22;20503;-75
2022/03/14 12:53:00;;;;;;;4.95;1.30;;;;;;;14.36;49.32;101285.41;6253728;22;20014;-75
2022/03/14 12:55:25;;;;;;;6.70;1.50;;;;;;;14.41;49.01;101279.75;6282983;22;20042;-75
2022/03/14 12:57:54;;;;;;;6.40;1.60;;;;;;;14.43;49.98;101269.13;6283341;22;20014;-75
2022/03/14 13:00:19;;;;;;;7.28;1.60;;;;;;;14.44;49.60;101264.34;6258449;22;20007;-75
2022/03/14 13:02:45;;;;;;;5.82;1.38;;;;;;;14.50;48.98;101258.38;6283504;22;20003;-75
2022/03/14 13:05:10;;;;;;;6.55;1.55;;;;;;;14.57;49.11;101251.59;6283552;22;20011;-75
2022/03/14 13:07:36;;;;;;;6.18;1.67;;;;;;;14.60;48.94;101246.25;6257911;22;20007;-75
2022/03/14 13:10:02;;;;;;;6.30;1.58;;;;;;;14.66;48.61;101241.41;6263350;22;20018;-75
2022/03/14 13:12:30;;;;;;;6.65;1.60;;;;;;;14.68;49.60;101247.50;6261831;22;20011;-74
2022/03/14 13:15:07;;;;;;;7.40;1.92;;;;;;;14.73;47.93;101233.44;6260664;22;20629;-75
2022/03/14 13:17:33;;;;;;;6.18;1.70;;;;;;;14.70;48.18;101225.69;6285607;22;20003;-75
2022/03/14 13:19:58;;;;;;;5.65;1.52;;;;;;;14.71;48.22;101224.56;6311366;22;20015;-75
2022/03/14 13:22:24;;;;;;;6.85;1.33;;;;;;;14.71;46.70;101232.94;6311047;22;20011;-75
2022/03/14 13:24:49;;;;;;;3.83;1.40;;;;;;;14.72;46.81;101220.63;6312633;22;20030;-75
2022/03/14 13:27:25;;;;;;;8.35;1.63;;;;;;;14.71;46.65;101227.34;6312359;22;20004;-75
2022/03/14 13:29:51;;;;;;;5.25;1.92;;;;;;;14.72;47.15;101223.41;6312578;22;20007;-75
2022/03/14 13:32:18;;;;;;;5.78;1.42;;;;;;;14.71;50.10;101213.38;6233957;22;20030;-75
2022/03/14 13:34:45;;;;;;;6.25;1.30;;;;;;;14.72;48.06;101221.44;6312473;22;20014;-74
2022/03/14 13:37:11;;;;;;;8.98;1.88;;;;;;;14.78;47.47;101224.16;6317645;22;20034;-75
2022/03/14 13:39:36;;;;;;;4.00;1.30;;;;;;;14.90;44.77;101221.69;6311742;22;20447;-75
2022/03/14 13:42:03;;;;;;;4.53;1.35;;;;;;;14.92;44.90;101219.44;6285191;22;20011;-75
2022/03/14 13:44:28;;;;;;;5.88;1.42;;;;;;;14.97;45.79;101228.56;6310991;22;20033;-75
2022/03/14 13:46:55;;;;;;;8.27;1.98;;;;;;;14.98;47.83;101224.63;6312398;22;20432;-75
2022/03/14 13:49:28;;;;;;;7.15;1.63;;;;;;;14.96;47.45;101228.88;6312035;22;20007;-75
2022/03/14 13:52:00;;;;;;;;;;;;;;;14.94;46.24;101225.56;6313318;22;20502;-75
2022/03/14 13:54:30;;;;;;;7.35;1.65;;;;;;;14.97;44.67;101222.97;6312482;22;19909;-75
2022/03/14 13:56:59;;;;;;;7.75;1.80;;;;;;;14.98;46.07;101218.19;6284549;22;20038;-75
2022/03/14 13:59:33;;;;;;;6.78;1.70;;;;;;;15.02;46.52;101224.03;6285000;22;20004;-75
2022/03/14 14:02:20;;;;;;;11.30;1.85;;;;;;;14.96;47.67;101212.09;6262209;22;20013;-75
2022/03/14 14:04:46;;;;;;;7.75;1.50;;;;;;;14.93;46.85;101210.75;6265715;22;20007;-75
2022/03/14 14:07:21;;;;;;;8.27;1.70;;;;;;;15.02;46.64;101210.06;6284918;22;20037;-75
2022/03/14 14:09:48;;;;;;;6.30;1.38;;;;;;;15.02;46.82;101205.28;6260644;22;20055;-75
2022/03/14 14:12:27;;;;;;;5.55;1.77;;;;;;;15.04;46.31;101213.34;6312176;22;20494;-75
2022/03/14 14:14:54;;;;;;;7.28;1.52;;;;;;;14.97;45.67;101208.16;6234270;22;20033;-75
2022/03/14 14:17:22;;;;;;;7.03;1.58;;;;;;;14.99;44.76;101208.69;6284619;22;20082;-75
2022/03/14 14:20:09;;;;;;;9.60;1.60;;;;;;;14.90;45.62;101202.94;6284831;22;20037;-74
2022/03/14 14:22:39;;;;;;;5.22;1.30;;;;;;;14.96;45.57;101192.53;6311677;22;20018;-75
2022/03/14 14:25:19;;;;;;;4.30;0.90;;;;;;;14.96;46.41;101193.34;6310613;22;20447;-75
2022/03/14 14:28:05;;;;;;;4.80;1.23;;;;;;;15.05;45.06;101184.25;6260978;22;20011;-75
2022/03/14 14:30:44;;;;;;;8.43;1.60;;;;;;;15.01;46.53;101184.03;6316676;22;20034;-75
2022/03/14 14:33:11;;;;;;;6.85;1.27;;;;;;;15.05;44.04;101175.88;6285619;22;20030;-75
2022/03/14 14:35:38;;;;;;;6.20;1.38;;;;;;;15.00;46.63;101175.97;6284776;22;20007;-75
2022/03/14 14:38:04;;;;;;;6.47;1.50;;;;;;;14.97;47.44;101172.63;6259669;22;20010;-75
2022/03/14 14:40:30;;;;;;;5.90;1.48;;;;;;;14.97;46.81;101167.03;6259170;22;20008;-76
2022/03/14 14:42:55;;;;;;;6.97;1.52;;;;;;;14.98;46.51;101168.69;6259090;22;20033;-75
2022/03/14 14:45:21;;;;;;;4.97;1.50;;;;;;;14.90;46.51;101158.19;6284398;22;20033;-75
2022/03/14 14:47:47;;;;;;;6.78;1.60;;;;;;;14.87;46.29;101152.41;6258698;22;20010;-75
2022/03/14 14:50:12;;;;;;;7.22;1.48;;;;;;;14.82;45.94;101153.34;6310096;22;20014;-75
2022/03/14 14:52:38;;;;;;;8.25;1.63;;;;;;;14.74;47.21;101149.28;6284633;22;20004;-75
2022/03/14 14:55:04;;;;;;;4.85;1.52;;;;;;;14.69;47.78;101140.97;6287120;22;20011;-75
2022/03/14 14:57:31;;;;;;;5.45;1.60;;;;;;;14.60;48.01;101144.75;6262370;22;20046;-74
2022/03/14 14:59:56;;;;;;;7.40;1.65;;;;;;;14.51;46.62;101148.25;6284307;22;20309;-75
2022/03/14 15:02:22;;;;;;;6.45;1.38;;;;;;;14.48;46.25;101142.41;6208445;22;20068;-74
2022/03/14 15:04:47;;;;;;;7.45;1.70;;;;;;;14.38;46.76;101143.44;6284424;22;20011;-74
2022/03/14 15:07:13;;;;;;;6.60;1.75;;;;;;;14.30;46.67;101153.31;6311687;22;20324;-75
2022/03/14 15:09:39;;;;;;;5.68;1.25;;;;;;;14.27;47.83;101141.94;6258788;22;20015;-74
2022/03/14 15:12:05;;;;;;;10.27;1.83;;;;;;;14.22;49.22;101145.63;6310154;22;20011;-75
2022/03/14 15:14:32;;;;;;;6.38;1.67;;;;;;;14.19;49.31;101146.25;6258739;22;20018;-75
2022/03/14 15:16:58;;;;;;;5.82;1.70;;;;;;;14.16;48.50;101132.88;6259153;22;20061;-74
2022/03/14 15:19:23;;;;;;;5.60;1.80;;;;;;;14.12;47.98;101137.41;6284720;22;20007;-75
2022/03/14 15:21:49;;;;;;;5.05;1.50;;;;;;;14.08;46.86;101123.22;6315577;22;20007;-75
2022/03/14 15:24:15;;;;;;;9.50;1.88;;;;;;;14.08;47.12;101126.00;6314337;22;20008;-74
2022/03/14 15:26:41;;;;;;;6.75;1.80;;;;;;;14.03;46.84;101111.28;6258789;22;20018;-75
2022/03/14 15:29:07;;;;;;;6.07;1.55;;;;;;;13.95;46.97;101117.56;6284142;22;20030;-75
2022/03/14 15:31:32;;;;;;;5.22;1.30;;;;;;;13.91;46.49;101114.56;6258828;22;20018;-75
2022/03/14 15:33:58;;;;;;;5.60;1.45;;;;;;;13.87;46.59;101113.47;6283160;22;20031;-75
2022/03/14 15:36:23;;;;;;;7.05;1.75;;;;;;;13.88;47.20;101117.94;6311481;22;20006;-75
2022/03/14 15:38:49;;;;;;;6.85;1.67;;;;;;;13.82;46.77;101119.97;6284159;22;20003;-75
2022/03/14 15:41:14;;;;;;;5.07;1.65;;;;;;;13.79;47.58;101119.72;6284110;22;20007;-75
2022/03/14 15:43:40;;;;;;;8.20;1.90;;;;;;;13.78;48.80;101110.53;6284035;22;20009;-75
2022/03/14 15:46:06;;;;;;;5.68;1.52;;;;;;;13.74;49.75;101117.88;6233259;22;20013;-75
2022/03/14 15:48:36;;;;;;;7.57;1.90;;;;;;;13.68;49.78;101115.44;6238118;22;20011;-75
2022/03/14 15:51:02;;;;;;;7.47;2.08;;;;;;;13.67;50.45;101116.56;6260139;22;20007;-75
2022/03/14 15:53:28;;;;;;;8.45;1.80;;;;;;;13.53;49.34;101114.50;6284097;22;20011;-75
2022/03/14 15:55:53;;;;;;;10.35;2.70;;;;;;;13.52;49.51;101120.41;6272290;22;20022;-74
2022/03/14 15:58:19;;;;;;;8.25;1.98;;;;;;;13.50;50.20;101111.50;6253261;22;20057;-75
2022/03/14 16:00:44;;;;;;;6.72;2.08;;;;;;;13.43;50.12;101114.66;6253109;22;20007;-75
2022/03/14 16:03:11;;;;;;;8.43;2.17;;;;;;;13.43;50.48;101123.03;6227643;22;20007;-75
2022/03/14 16:05:37;;;;;;;8.75;1.90;;;;;;;13.39;50.22;101121.94;6253366;22;20019;-74
2022/03/14 16:08:03;;;;;;;6.93;2.17;;;;;;;13.34;50.76;101125.63;6280178;22;20007;-74
2022/03/14 16:10:28;;;;;;;7.97;1.90;;;;;;;13.29;50.44;101122.91;6253437;22;20036;-75
2022/03/14 16:12:54;;;;;;;9.88;2.00;;;;;;;13.25;50.93;101132.13;6253856;22;20015;-74
2022/03/14 16:15:20;;;;;;;7.57;1.83;;;;;;;13.22;51.29;101127.16;6284719;22;20325;-75
2022/03/14 16:17:46;;;;;;;6.93;2.13;;;;;;;13.16;51.38;101127.22;6228519;22;20003;-75
2022/03/14 16:20:12;;;;;;;6.00;2.25;;;;;;;13.13;52.72;101124.19;6228032;22;20083;-74
2022/03/14 16:22:37;;;;;;;6.75;1.60;;;;;;;13.08;52.68;101122.28;6253235;22;20000;-75
2022/03/14 16:25:04;;;;;;;9.18;1.88;;;;;;;13.03;53.00;101116.75;6253077;22;20003;-75
2022/03/14 16:27:29;;;;;;;8.15;1.90;;;;;;;13.01;53.84;101121.81;6253187;22;20616;-74
2022/03/14 16:29:55;;;;;;;12.30;1.83;;;;;;;12.99;53.94;101117.66;6280054;22;20008;-75
2022/03/14 16:32:20;;;;;;;11.82;2.22;;;;;;;12.92;54.55;101118.81;6227715;22;20007;-75
2022/03/14 16:34:46;;;;;;;11.02;1.90;;;;;;;12.88;53.82;101119.72;6253319;22;20015;-75
2022/03/14 16:37:12;;;;;;;9.85;1.80;;;;;;;12.84;54.42;101118.63;6227818;22;20380;-75
2022/03/14 16:39:39;;;;;;;5.97;1.65;;;;;;;12.91;54.32;101113.56;6204181;22;20041;-74
2022/03/14 16:42:05;;;;;;;9.95;1.85;;;;;;;12.86;54.47;101119.19;6233199;22;20007;-75
2022/03/14 16:44:30;;;;;;;10.07;2.35;;;;;;;12.79;54.35;101113.09;6228035;22;20039;-75
2022/03/14 16:46:57;;;;;;;5.45;1.58;;;;;;;12.73;53.76;101118.75;6281745;22;20008;-74
2022/03/14 16:49:22;;;;;;;10.48;2.40;;;;;;;12.68;53.61;101116.00;6229960;22;20008;-74
2022/03/14 16:51:48;;;;;;;9.77;1.65;;;;;;;12.66;54.06;101120.22;6255117;22;20302;-75
2022/03/14 16:54:14;;;;;;;7.05;2.08;;;;;;;12.61;53.61;101118.31;6255149;22;20008;-75
2022/03/14 16:56:41;;;;;;;9.05;1.92;;;;;;;12.56;54.17;101121.13;6249966;22;20074;-75
2022/03/14 16:59:07;;;;;;;8.85;2.10;;;;;;;12.52;54.31;101115.31;6285834;22;20057;-74
2022/03/14 17:01:32;;;;;;;6.50;1.60;;;;;;;12.47;54.66;101120.94;6260223;22;20041;-75
2022/03/14 17:03:58;;;;;;;8.35;2.00;;;;;;;12.44;54.65;101120.69;6285442;22;20003;-75
2022/03/14 17:06:23;;;;;;;4.65;1.52;;;;;;;12.37;55.39;101120.19;6262601;22;20515;-75
2022/03/14 17:08:49;;;;;;;11.73;1.90;;;;;;;12.36;55.80;101124.09;6289790;22;20056;-75
2022/03/14 17:11:15;;;;;;;11.50;2.17;;;;;;;12.31;55.96;101124.97;6259848;22;20010;-75
2022/03/14 17:13:41;;;;;;;9.90;1.92;;;;;;;12.27;56.41;101123.91;6285823;22;20003;-75
2022/03/14 17:16:06;;;;;;;4.38;1.55;;;;;;;12.24;56.28;101125.31;6260006;22;20028;-75
2022/03/14 17:18:32;;;;;;;10.27;2.25;;;;;;;12.20;57.04;101123.38;6312555;22;20003;-75
2022/03/14 17:20:58;;;;;;;8.40;1.67;;;;;;;12.13;57.71;101129.28;6285427;22;20003;-75
2022/03/14 17:23:23;;;;;;;11.73;1.73;;;;;;;12.08;58.39;101132.09;6259932;22;20007;-75
2022/03/14 17:25:53;;;;;;;8.23;1.90;;;;;;;12.04;59.13;101119.91;6285242;22;20003;-75
2022/03/14 17:28:20;;;;;;;7.25;1.83;;;;;;;12.00;59.37;101124.38;6260100;22;20007;-75
2022/03/14 17:30:47;;;;;;;9.43;2.28;;;;;;;11.95;59.66;101124.41;6285252;22;20007;-75
2022/03/14 17:33:13;;;;;;;8.48;1.98;;;;;;;11.92;59.69;101131.38;6288718;22;20453;-75
2022/03/14 17:35:39;;;;;;;8.60;2.28;;;;;;;11.87;60.48;101125.84;6263581;22;20425;-78
2022/03/14 17:38:04;;;;;;;11.68;2.47;;;;;;;11.82;61.44;101129.47;6285351;22;20057;-69
2022/03/14 17:40:31;;;;;;;13.82;2.75;;;;;;;11.73;61.51;101125.63;6312768;22;20041;-69